createdAt,value
2023-04-25T00:01:24.449Z,95388.22
2023-04-25T00:03:52.316Z,95386.81
2023-04-25T00:06:20.053Z,95382.88
2023-04-25T00:08:47.357Z,95377.59
2023-04-25T00:11:14.691Z,95379.28
2023-04-25T00:13:43.265Z,95376.50
2023-04-25T00:16:10.646Z,95384.06
2023-04-25T00:18:38.182Z,95384.06
2023-04-25T00:21:07.628Z,95391.00
2023-04-25T00:23:37.111Z,95387.25
2023-04-25T00:26:04.551Z,95388.59
2023-04-25T00:28:31.996Z,95382.06
2023-04-25T00:30:59.744Z,95385.88
2023-04-25T00:33:27.082Z,95385.44
2023-04-25T00:35:54.543Z,95391.09
2023-04-25T00:38:22.201Z,95392.31
2023-04-25T00:40:49.840Z,95388.72
2023-04-25T00:43:17.220Z,95386.34
2023-04-25T00:45:44.740Z,95381.28
2023-04-25T00:48:12.898Z,95373.03
2023-04-25T00:50:40.219Z,95373.03
2023-04-25T00:53:08.098Z,95371.56
2023-04-25T00:55:37.496Z,95378.09
2023-04-25T00:58:05.021Z,95375.09
2023-04-25T01:00:32.387Z,95372.78
2023-04-25T01:03:00.420Z,95374.91
2023-04-25T01:05:28.080Z,95367.13
2023-04-25T01:07:56.152Z,95366.75
2023-04-25T01:10:23.447Z,95366.69
2023-04-25T01:12:51.338Z,95363.97
2023-04-25T01:15:18.670Z,95370.97
2023-04-25T01:17:46.110Z,95364.81
2023-04-25T01:20:15.392Z,95369.16
2023-04-25T01:22:44.197Z,95373.56
2023-04-25T01:25:13.228Z,95369.16
2023-04-25T01:27:41.618Z,95363.41
2023-04-25T01:30:09.630Z,95360.19
2023-04-25T01:32:39.934Z,95363.00
2023-04-25T01:35:12.222Z,95367.94
2023-04-25T01:37:48.759Z,95363.81
2023-04-25T01:40:16.341Z,95359.28
2023-04-25T01:42:44.903Z,95357.66
2023-04-25T01:45:13.340Z,95347.13
2023-04-25T01:47:45.107Z,95349.63
2023-04-25T01:50:12.736Z,95350.53
2023-04-25T01:52:40.317Z,95350.38
2023-04-25T01:55:09.010Z,95353.72
2023-04-25T01:57:39.081Z,95354.44
2023-04-25T02:00:11.139Z,95348.78
2023-04-25T02:02:41.627Z,95352.63
2023-04-25T02:05:22.566Z,95344.34
2023-04-25T02:07:50.140Z,95359.72
2023-04-25T02:10:17.402Z,95351.41
2023-04-25T02:13:06.772Z,95356.81
2023-04-25T02:15:43.742Z,95353.22
2023-04-25T02:18:17.795Z,95350.19
2023-04-25T02:20:45.776Z,95342.69
2023-04-25T02:23:13.182Z,95339.09
2023-04-25T02:25:40.429Z,95347.81
2023-04-25T02:28:08.023Z,95343.41
2023-04-25T02:30:36.750Z,95341.28
2023-04-25T02:33:06.489Z,95343.78
2023-04-25T02:35:33.788Z,95349.31
2023-04-25T02:38:01.292Z,95341.69
2023-04-25T02:40:28.681Z,95345.06
2023-04-25T02:42:56.359Z,95342.00
2023-04-25T02:45:23.621Z,95335.75
2023-04-25T02:47:51.161Z,95329.75
2023-04-25T02:50:20.038Z,95329.69
2023-04-25T02:52:47.716Z,95330.34
2023-04-25T02:55:19.369Z,95334.03
2023-04-25T02:57:47.512Z,95334.97
2023-04-25T03:00:23.755Z,95334.22
2023-04-25T03:02:52.466Z,95335.50
2023-04-25T03:05:20.670Z,95332.81
2023-04-25T03:07:48.112Z,95328.59
2023-04-25T03:10:17.084Z,95318.31
2023-04-25T03:12:44.496Z,95320.31
2023-04-25T03:15:11.837Z,95325.66
2023-04-25T03:17:39.237Z,95320.59
2023-04-25T03:20:09.928Z,95328.88
2023-04-25T03:22:38.149Z,95335.22
2023-04-25T03:25:06.340Z,95332.13
2023-04-25T03:27:33.699Z,95321.41
2023-04-25T03:30:00.962Z,95322.94
2023-04-25T03:32:29.492Z,95318.31
2023-04-25T03:34:57.207Z,95307.75
2023-04-25T03:37:26.851Z,95303.31
2023-04-25T03:39:54.699Z,95309.22
2023-04-25T03:42:24.617Z,95321.56
2023-04-25T03:44:55.164Z,95318.41
2023-04-25T03:47:22.739Z,95326.91
2023-04-25T03:49:53.234Z,95318.66
2023-04-25T03:52:23.342Z,95314.81
2023-04-25T03:54:50.757Z,95315.41
2023-04-25T03:57:20.838Z,95310.41
2023-04-25T03:59:48.210Z,95314.16
2023-04-25T04:02:17.209Z,95312.63
2023-04-25T04:04:45.776Z,95315.97
2023-04-25T04:07:14.176Z,95323.56
2023-04-25T04:09:44.578Z,95319.28
2023-04-25T04:12:18.790Z,95318.31
2023-04-25T04:14:46.221Z,95318.81
2023-04-25T04:17:14.292Z,95312.09
2023-04-25T04:19:41.615Z,95320.41
2023-04-25T04:22:12.482Z,95322.28
2023-04-25T04:24:41.220Z,95315.56
2023-04-25T04:27:11.964Z,95312.00
2023-04-25T04:29:49.493Z,95319.63
2023-04-25T04:32:25.325Z,95318.63
2023-04-25T04:34:56.388Z,95312.84
2023-04-25T04:37:25.545Z,95320.94
2023-04-25T04:39:53.655Z,95317.03
2023-04-25T04:42:39.628Z,95316.94
2023-04-25T04:45:16.117Z,95317.16
2023-04-25T04:48:04.248Z,95327.44
2023-04-25T04:51:03.751Z,95323.06
2023-04-25T04:53:49.612Z,95329.81
2023-04-25T04:56:33.612Z,95332.66
2023-04-25T04:59:27.075Z,95328.72
2023-04-25T05:02:14.634Z,95322.78
2023-04-25T05:05:13.891Z,95314.56
2023-04-25T05:07:59.577Z,95326.75
2023-04-25T05:10:49.937Z,95323.34
2023-04-25T05:13:56.029Z,95312.66
2023-04-25T05:16:58.712Z,95303.44
2023-04-25T05:19:40.793Z,95307.09
2023-04-25T05:22:31.308Z,95308.28
2023-04-25T05:25:18.653Z,95312.81
2023-04-25T05:27:53.763Z,95315.78
2023-04-25T05:30:46.397Z,95305.72
2023-04-25T05:33:20.233Z,95306.91
2023-04-25T05:35:50.728Z,95316.50
2023-04-25T05:38:18.136Z,95318.66
2023-04-25T05:41:04.321Z,95324.97
2023-04-25T05:43:56.115Z,95320.16
2023-04-25T05:46:47.185Z,95317.38
2023-04-25T05:49:52.359Z,95307.47
2023-04-25T05:52:40.196Z,95322.97
2023-04-25T05:55:46.062Z,95319.72
2023-04-25T05:58:21.688Z,95322.00
2023-04-25T06:00:49.230Z,95326.66
2023-04-25T06:03:20.419Z,95326.69
2023-04-25T06:05:48.657Z,95324.88
2023-04-25T06:08:16.062Z,95324.88
2023-04-25T06:10:44.080Z,95323.53
2023-04-25T06:13:11.583Z,95326.00
2023-04-25T06:15:39.137Z,95327.44
2023-04-25T06:18:06.637Z,95336.19
2023-04-25T06:20:35.095Z,95342.09
2023-04-25T06:23:02.513Z,95336.47
2023-04-25T06:25:52.689Z,95322.69
2023-04-25T06:28:20.687Z,95328.34
2023-04-25T06:30:47.979Z,95320.44
2023-04-25T06:33:18.965Z,95328.88
2023-04-25T06:35:47.006Z,95330.47
2023-04-25T06:38:17.638Z,95323.22
2023-04-25T06:40:48.840Z,95334.16
2023-04-25T06:43:17.190Z,95329.41
2023-04-25T06:46:04.701Z,95333.09
2023-04-25T06:48:34.629Z,95330.47
2023-04-25T06:51:02.062Z,95337.59
2023-04-25T06:53:29.636Z,95336.28
2023-04-25T06:56:00.671Z,95331.47
2023-04-25T06:58:41.940Z,95334.94
2023-04-25T07:01:25.881Z,95332.47
2023-04-25T07:03:53.856Z,95333.28
2023-04-25T07:06:21.673Z,95339.66
2023-04-25T07:08:49.515Z,95338.00
2023-04-25T07:11:18.521Z,95328.88
2023-04-25T07:13:46.044Z,95332.72
2023-04-25T07:16:13.581Z,95332.84
2023-04-25T07:18:41.722Z,95324.38
2023-04-25T07:21:10.229Z,95323.13
2023-04-25T07:23:38.910Z,95324.50
2023-04-25T07:26:11.208Z,95318.78
2023-04-25T07:28:51.363Z,95322.19
2023-04-25T07:31:19.690Z,95311.19
2023-04-25T07:33:47.334Z,95312.47
2023-04-25T07:36:16.772Z,95314.47
2023-04-25T07:38:45.888Z,95306.69
2023-04-25T07:41:13.451Z,95303.19
2023-04-25T07:43:40.882Z,95305.75
2023-04-25T07:46:08.165Z,95308.31
2023-04-25T07:48:36.554Z,95298.09
2023-04-25T07:51:06.054Z,95301.69
2023-04-25T07:53:36.439Z,95296.13
2023-04-25T07:56:08.668Z,95298.13
2023-04-25T07:58:39.129Z,95288.13
2023-04-25T08:01:09.510Z,95298.00
2023-04-25T08:03:37.131Z,95286.09
2023-04-25T08:06:09.814Z,95290.97
2023-04-25T08:08:47.319Z,95290.91
2023-04-25T08:11:18.553Z,95291.31
2023-04-25T08:13:46.211Z,95285.06
2023-04-25T08:16:13.762Z,95283.88
2023-04-25T08:18:41.719Z,95285.75
2023-04-25T08:21:12.833Z,95288.47
2023-04-25T08:23:40.941Z,95280.88
2023-04-25T08:26:16.358Z,95290.13
2023-04-25T08:28:44.392Z,95287.34
2023-04-25T08:31:12.048Z,95281.84
2023-04-25T08:33:50.939Z,95280.63
2023-04-25T08:36:37.829Z,95282.91
2023-04-25T08:39:17.728Z,95284.72
2023-04-25T08:42:11.906Z,95290.91
2023-04-25T08:44:39.721Z,95301.44
2023-04-25T08:47:07.871Z,95307.72
2023-04-25T08:49:47.489Z,95316.22
2023-04-25T08:52:16.286Z,95310.56
2023-04-25T08:54:49.997Z,95302.25
2023-04-25T08:57:19.894Z,95303.09
2023-04-25T08:59:50.699Z,95293.19
2023-04-25T09:02:21.309Z,95292.22
2023-04-25T09:04:51.353Z,95288.03
2023-04-25T09:07:22.515Z,95295.94
2023-04-25T09:09:51.218Z,95284.41
2023-04-25T09:12:21.840Z,95288.69
2023-04-25T09:15:09.977Z,95290.91
2023-04-25T09:18:00.801Z,95291.41
2023-04-25T09:23:16.718Z,95287.91
2023-04-25T09:25:44.786Z,95290.78
2023-04-25T09:28:12.509Z,95291.97
2023-04-25T09:30:41.043Z,95294.84
2023-04-25T09:33:21.153Z,95290.94
2023-04-25T09:35:56.896Z,95298.56
2023-04-25T09:38:46.554Z,95293.09
2023-04-25T09:41:26.361Z,95297.41
2023-04-25T09:43:59.590Z,95299.81
2023-04-25T09:46:37.901Z,95296.34
2023-04-25T09:49:09.747Z,95295.50
2023-04-25T09:51:58.856Z,95298.03
2023-04-25T09:54:30.541Z,95290.94
2023-04-25T09:57:12.996Z,95283.22
2023-04-25T09:59:45.402Z,95285.13
2023-04-25T10:02:14.007Z,95278.88
2023-04-25T10:04:42.616Z,95289.31
2023-04-25T10:07:35.678Z,95298.50
2023-04-25T10:10:05.452Z,95292.88
2023-04-25T10:12:34.902Z,95287.97
2023-04-25T10:15:04.283Z,95291.00
2023-04-25T10:17:32.956Z,95301.81
2023-04-25T10:20:03.194Z,95300.25
2023-04-25T10:22:40.891Z,95293.19
2023-04-25T10:25:09.824Z,95293.06
2023-04-25T10:27:38.790Z,95293.41
2023-04-25T10:30:12.674Z,95293.09
2023-04-25T10:32:44.711Z,95291.78
2023-04-25T10:35:17.794Z,95285.16
2023-04-25T10:38:15.332Z,95289.09
2023-04-25T10:40:42.894Z,95289.56
2023-04-25T10:43:36.921Z,95286.03
2023-04-25T10:46:36.301Z,95301.84
2023-04-25T10:49:04.497Z,95304.78
2023-04-25T10:54:08.493Z,95332.75
2023-04-25T10:56:41.187Z,95329.09
2023-04-25T10:59:18.435Z,95335.00
2023-04-25T11:01:52.928Z,95337.28
2023-04-25T11:04:37.714Z,95349.13
2023-04-25T11:07:11.303Z,95348.97
2023-04-25T11:09:42.701Z,95361.09
2023-04-25T11:12:13.234Z,95366.41
2023-04-25T11:17:28.531Z,95372.84
2023-04-25T11:19:57.499Z,95397.69
2023-04-25T11:22:25.225Z,95404.66
2023-04-25T11:24:52.789Z,95403.47
2023-04-25T11:27:20.583Z,95405.31
2023-04-25T11:29:49.489Z,95406.31
2023-04-25T11:32:20.602Z,95403.91
2023-04-25T11:34:49.078Z,95417.47
2023-04-25T11:37:16.961Z,95412.84
2023-04-25T11:39:46.735Z,95410.28
2023-04-25T11:42:14.357Z,95417.34
2023-04-25T11:44:42.214Z,95417.16
2023-04-25T11:47:09.506Z,95408.44
2023-04-25T11:49:37.263Z,95413.75
2023-04-25T11:52:04.744Z,95414.75
2023-04-25T11:54:32.067Z,95419.16
2023-04-25T11:56:59.352Z,95424.03
2023-04-25T11:59:27.790Z,95424.19
2023-04-25T12:01:55.564Z,95416.34
2023-04-25T12:04:24.550Z,95428.00
2023-04-25T12:06:54.742Z,95418.44
2023-04-25T12:09:30.042Z,95426.72
2023-04-25T12:11:59.647Z,95426.69
2023-04-25T12:14:33.322Z,95433.41
2023-04-25T12:17:03.286Z,95437.41
2023-04-25T12:19:41.797Z,95448.28
2023-04-25T12:22:23.581Z,95444.84
2023-04-25T12:24:54.675Z,95448.88
2023-04-25T12:27:22.190Z,95452.75
2023-04-25T12:29:57.767Z,95459.59
2023-04-25T12:32:25.818Z,95456.16
2023-04-25T12:34:53.527Z,95459.72
2023-04-25T12:37:20.933Z,95461.84
2023-04-25T12:39:48.256Z,95468.31
2023-04-25T12:42:15.614Z,95464.38
2023-04-25T12:44:43.018Z,95466.84
2023-04-25T12:47:11.070Z,95469.06
2023-04-25T12:49:38.456Z,95474.00
2023-04-25T12:52:05.798Z,95472.25
2023-04-25T12:54:33.171Z,95481.22
2023-04-25T12:57:00.650Z,95491.94
2023-04-25T12:59:28.040Z,95493.22
2023-04-25T13:01:55.417Z,95494.75
2023-04-25T13:04:22.866Z,95497.53
2023-04-25T13:06:50.393Z,95496.78
2023-04-25T13:09:17.604Z,95495.75
2023-04-25T13:11:45.102Z,95499.66
2023-04-25T13:14:12.493Z,95506.03
2023-04-25T13:16:39.792Z,95508.22
2023-04-25T13:19:09.141Z,95505.44
2023-04-25T13:21:36.554Z,95511.56
2023-04-25T13:24:04.102Z,95512.72
2023-04-25T13:26:31.470Z,95509.44
2023-04-25T13:28:58.714Z,95506.97
2023-04-25T13:31:26.203Z,95511.47
2023-04-25T13:33:53.724Z,95514.75
2023-04-25T13:36:21.263Z,95508.97
2023-04-25T13:38:50.584Z,95507.63
2023-04-25T13:41:20.326Z,95505.38
2023-04-25T13:43:49.362Z,95498.75
2023-04-25T13:46:35.261Z,95504.34
2023-04-25T13:49:12.053Z,95500.41
2023-04-25T13:51:40.173Z,95503.88
2023-04-25T13:54:07.448Z,95512.50
2023-04-25T13:56:35.067Z,95508.97
2023-04-25T13:59:02.412Z,95506.66
2023-04-25T14:01:32.253Z,95503.00
2023-04-25T14:03:59.799Z,95506.19
2023-04-25T14:06:27.376Z,95494.75
2023-04-25T14:08:55.318Z,95504.34
2023-04-25T14:11:22.570Z,95512.09
2023-04-25T14:13:50.765Z,95505.00
2023-04-25T14:16:18.588Z,95510.28
2023-04-25T14:18:46.070Z,95507.19
2023-04-25T14:21:13.348Z,95512.59
2023-04-25T14:23:40.642Z,95512.91
2023-04-25T14:26:08.020Z,95513.66
2023-04-25T14:28:35.212Z,95520.53
2023-04-25T14:31:02.543Z,95527.97
2023-04-25T14:33:29.861Z,95521.75
2023-04-25T14:35:57.359Z,95539.91
2023-04-25T14:38:26.922Z,95532.00
2023-04-25T14:40:55.461Z,95541.88
2023-04-25T14:43:22.801Z,95535.16
2023-04-25T14:45:50.190Z,95538.50
2023-04-25T14:48:19.477Z,95540.56
2023-04-25T14:50:47.983Z,95541.56
2023-04-25T14:53:16.004Z,95544.06
2023-04-25T14:55:43.449Z,95548.78
2023-04-25T14:58:10.846Z,95540.56
2023-04-25T15:00:38.699Z,95555.50
2023-04-25T15:03:07.104Z,95557.41
2023-04-25T15:05:35.623Z,95562.94
2023-04-25T15:08:03.526Z,95551.25
2023-04-25T15:10:31.205Z,95562.78
2023-04-25T15:12:58.730Z,95567.91
2023-04-25T15:15:27.147Z,95568.75
2023-04-25T15:17:58.730Z,95572.47
2023-04-25T15:20:27.216Z,95573.06
2023-04-25T15:22:54.628Z,95577.59
2023-04-25T15:25:22.313Z,95585.81
2023-04-25T15:27:50.830Z,95583.25
2023-04-25T15:30:19.024Z,95589.47
2023-04-25T15:32:48.036Z,95597.88
2023-04-25T15:35:19.208Z,95590.13
2023-04-25T15:37:46.674Z,95597.25
2023-04-25T15:40:16.866Z,95602.41
2023-04-25T15:42:45.055Z,95602.91
2023-04-25T15:45:12.654Z,95596.19
2023-04-25T15:47:40.085Z,95592.66
2023-04-25T15:50:09.844Z,95601.47
2023-04-25T15:52:37.905Z,95599.63
2023-04-25T15:55:06.860Z,95606.25
2023-04-25T15:57:35.902Z,95605.28
2023-04-25T16:00:11.508Z,95600.63
2023-04-25T16:02:40.082Z,95603.28
2023-04-25T16:05:08.142Z,95596.19
2023-04-25T16:07:36.110Z,95592.31
2023-04-25T16:10:03.718Z,95604.16
2023-04-25T16:12:31.694Z,95591.19
2023-04-25T16:14:58.985Z,95581.53
2023-04-25T16:17:28.575Z,95601.34
2023-04-25T16:19:56.501Z,95605.88
2023-04-25T16:22:23.892Z,95614.69
2023-04-25T16:24:51.625Z,95614.66
2023-04-25T16:27:18.920Z,95610.66
2023-04-25T16:29:46.174Z,95616.94
2023-04-25T16:32:13.923Z,95605.69
2023-04-25T16:34:41.174Z,95610.00
2023-04-25T16:37:08.886Z,95608.84
2023-04-25T16:39:36.186Z,95620.78
2023-04-25T16:42:04.963Z,95618.63
2023-04-25T16:44:32.412Z,95622.94
2023-04-25T16:46:59.830Z,95623.78
2023-04-25T16:49:27.292Z,95621.97
2023-04-25T16:51:54.674Z,95626.06
2023-04-25T16:54:21.926Z,95636.53
2023-04-25T16:56:49.181Z,95637.03
2023-04-25T16:59:16.483Z,95638.69
2023-04-25T17:01:43.884Z,95641.81
2023-04-25T17:04:14.453Z,95642.13
2023-04-25T17:06:41.858Z,95654.06
2023-04-25T17:09:09.143Z,95647.41
2023-04-25T17:11:37.244Z,95652.31
2023-04-25T17:14:04.848Z,95655.00
2023-04-25T17:16:39.321Z,95653.88
2023-04-25T17:19:07.875Z,95674.66
2023-04-25T17:21:35.119Z,95667.22
2023-04-25T17:24:05.172Z,95675.63
2023-04-25T17:26:32.716Z,95676.97
2023-04-25T17:28:59.970Z,95680.75
2023-04-25T17:31:27.387Z,95680.03
2023-04-25T17:33:54.613Z,95683.03
2023-04-25T17:36:22.008Z,95684.31
2023-04-25T17:38:49.349Z,95694.56
2023-04-25T17:41:18.200Z,95695.72
2023-04-25T17:43:46.061Z,95699.50
2023-04-25T17:46:13.555Z,95701.66
2023-04-25T17:48:40.904Z,95705.28
2023-04-25T17:51:08.373Z,95705.44
2023-04-25T17:53:36.932Z,95724.28
2023-04-25T17:56:06.808Z,95728.72
2023-04-25T17:58:35.949Z,95726.94
2023-04-25T18:01:04.606Z,95726.72
2023-04-25T18:03:32.134Z,95735.75
2023-04-25T18:05:59.736Z,95739.31
2023-04-25T18:08:27.026Z,95730.44
2023-04-25T18:10:54.179Z,95731.19
2023-04-25T18:13:21.481Z,95736.38
2023-04-25T18:15:49.008Z,95742.09
2023-04-25T18:18:20.578Z,95744.38
2023-04-25T18:20:47.869Z,95751.88
2023-04-25T18:23:15.102Z,95763.84
2023-04-25T18:25:42.321Z,95763.94
2023-04-25T18:28:09.593Z,95772.81
2023-04-25T18:30:38.392Z,95774.44
2023-04-25T18:33:05.755Z,95772.09
2023-04-25T18:35:33.133Z,95783.41
2023-04-25T18:38:00.402Z,95793.97
2023-04-25T18:40:27.705Z,95792.75
2023-04-25T18:42:54.973Z,95789.88
2023-04-25T18:45:22.255Z,95797.78
2023-04-25T18:47:49.593Z,95803.63
2023-04-25T18:50:20.847Z,95801.41
2023-04-25T18:52:48.145Z,95805.31
2023-04-25T18:55:15.352Z,95807.38
2023-04-25T18:57:43.414Z,95811.94
2023-04-25T19:00:11.492Z,95803.34
2023-04-25T19:02:38.936Z,95815.16
2023-04-25T19:05:06.787Z,95812.91
2023-04-25T19:07:34.129Z,95814.75
2023-04-25T19:10:01.550Z,95813.06
2023-04-25T19:12:29.003Z,95813.19
2023-04-25T19:14:56.851Z,95813.47
2023-04-25T19:17:24.289Z,95812.22
2023-04-25T19:19:51.507Z,95820.94
2023-04-25T19:22:19.609Z,95822.16
2023-04-25T19:24:50.558Z,95825.19
2023-04-25T19:27:22.968Z,95826.56
2023-04-25T19:29:57.767Z,95833.47
2023-04-25T19:32:25.995Z,95830.72
2023-04-25T19:34:53.329Z,95832.28
2023-04-25T19:37:21.129Z,95837.41
2023-04-25T19:39:48.372Z,95836.16
2023-04-25T19:42:15.679Z,95840.88
2023-04-25T19:44:42.849Z,95840.47
2023-04-25T19:47:11.538Z,95836.88
2023-04-25T19:49:38.955Z,95840.63
2023-04-25T19:52:07.400Z,95833.16
2023-04-25T19:54:34.836Z,95844.97
2023-04-25T19:57:02.244Z,95845.63
2023-04-25T19:59:29.528Z,95843.44
2023-04-25T20:01:56.811Z,95842.19
2023-04-25T20:04:24.274Z,95835.81
2023-04-25T20:06:51.488Z,95837.34
2023-04-25T20:09:21.259Z,95838.72
2023-04-25T20:11:48.458Z,95842.91
2023-04-25T20:14:15.928Z,95836.66
2023-04-25T20:16:43.236Z,95834.72
2023-04-25T20:19:10.523Z,95844.13
2023-04-25T20:21:39.049Z,95839.69
2023-04-25T20:24:07.267Z,95842.19
2023-04-25T20:26:34.590Z,95836.22
2023-04-25T20:29:02.411Z,95843.31
2023-04-25T20:31:30.464Z,95847.06
2023-04-25T20:33:59.730Z,95842.91
2023-04-25T20:36:27.789Z,95848.16
2023-04-25T20:38:55.305Z,95844.13
2023-04-25T20:41:22.923Z,95847.47
2023-04-25T20:43:50.562Z,95846.75
2023-04-25T20:46:18.076Z,95843.03
2023-04-25T20:48:45.654Z,95844.41
2023-04-25T20:51:13.195Z,95853.56
2023-04-25T20:53:40.512Z,95845.25
2023-04-25T20:56:07.815Z,95845.13
2023-04-25T20:58:35.144Z,95843.59
2023-04-25T21:01:04.682Z,95851.34
2023-04-25T21:03:32.770Z,95859.09
2023-04-25T21:06:00.426Z,95852.31
2023-04-25T21:08:27.667Z,95858.13
2023-04-25T21:10:54.919Z,95860.50
2023-04-25T21:13:22.240Z,95867.16
2023-04-25T21:15:49.430Z,95859.25
2023-04-25T21:18:16.693Z,95865.34
2023-04-25T21:20:44.007Z,95864.69
2023-04-25T21:23:11.309Z,95871.31
2023-04-25T21:25:38.700Z,95874.41
2023-04-25T21:28:07.053Z,95874.09
2023-04-25T21:30:34.287Z,95871.34
2023-04-25T21:33:03.444Z,95870.22
2023-04-25T21:35:31.008Z,95872.75
2023-04-25T21:37:58.241Z,95872.31
2023-04-25T21:40:27.324Z,95871.88
2023-04-25T21:42:54.736Z,95868.72
2023-04-25T21:45:22.169Z,95871.75
2023-04-25T21:47:50.961Z,95882.44
2023-04-25T21:50:19.038Z,95880.34
2023-04-25T21:52:46.309Z,95874.94
2023-04-25T21:55:13.581Z,95879.66
2023-04-25T21:57:41.666Z,95877.72
2023-04-25T22:00:21.983Z,95875.91
2023-04-25T22:02:49.511Z,95871.47
2023-04-25T22:05:23.640Z,95874.38
2023-04-25T22:07:52.210Z,95880.47
2023-04-25T22:10:21.727Z,95877.00
2023-04-25T22:12:52.434Z,95880.78
2023-04-25T22:15:21.768Z,95889.34
2023-04-25T22:17:49.194Z,95888.56
2023-04-25T22:20:17.442Z,95888.38
2023-04-25T22:22:44.676Z,95890.91
2023-04-25T22:25:14.853Z,95889.22
2023-04-25T22:27:43.224Z,95888.13
2023-04-25T22:30:15.186Z,95894.09
2023-04-25T22:32:43.940Z,95899.63
2023-04-25T22:35:12.388Z,95896.88
2023-04-25T22:37:41.742Z,95893.41
2023-04-25T22:40:09.490Z,95903.09
2023-04-25T22:42:40.753Z,95904.78
2023-04-25T22:45:09.002Z,95902.97
2023-04-25T22:47:37.463Z,95912.69
2023-04-25T22:50:12.881Z,95908.38
2023-04-25T22:52:40.808Z,95912.69
2023-04-25T22:55:08.369Z,95917.13
2023-04-25T22:57:38.716Z,95911.00
2023-04-25T23:00:19.891Z,95918.78
2023-04-25T23:02:48.334Z,95917.94
2023-04-25T23:05:15.965Z,95909.91
2023-04-25T23:07:45.427Z,95914.34
2023-04-25T23:10:13.616Z,95914.34
2023-04-25T23:12:41.305Z,95915.19
2023-04-25T23:15:09.703Z,95918.78
2023-04-25T23:17:37.518Z,95919.63
2023-04-25T23:20:08.015Z,95917.25
2023-04-25T23:22:35.392Z,95922.81
2023-04-25T23:25:02.857Z,95917.81
2023-04-25T23:27:30.321Z,95919.88
2023-04-25T23:29:58.352Z,95916.56
2023-04-25T23:32:26.731Z,95923.06
2023-04-25T23:34:53.976Z,95908.34
2023-04-25T23:37:21.658Z,95907.66
2023-04-25T23:39:51.080Z,95917.38
2023-04-25T23:42:19.138Z,95911.41
2023-04-25T23:44:46.564Z,95917.63
2023-04-25T23:47:14.598Z,95928.03
2023-04-25T23:49:41.943Z,95929.00
2023-04-25T23:52:09.164Z,95933.31
2023-04-25T23:54:36.499Z,95927.22
2023-04-25T23:57:06.752Z,95926.25
2023-04-25T23:59:34.362Z,95929.72
